sensor_id;sensor_type;location;lat;lon;timestamp;P1;durP1;ratioP1;P2;durP2;ratioP2
71821;SDS011;64096;52.548;13.406;2023-06-10T06:01:30;6.95;;;5.03;;
71821;SDS011;64096;52.548;13.406;2023-06-10T06:03:56;7.15;;;4.35;;
71821;SDS011;64096;52.548;13.406;2023-06-10T06:06:22;9.45;;;4.70;;
71821;SDS011;64096;52.548;13.406;2023-06-10T06:08:48;8.27;;;4.90;;
71821;SDS011;64096;52.548;13.406;2023-06-10T06:11:14;9.13;;;4.78;;
71821;SDS011;64096;52.548;13.406;2023-06-10T06:13:41;6.97;;;4.90;;
71821;SDS011;64096;52.548;13.406;2023-06-10T06:16:08;7.25;;;4.50;;
71821;SDS011;64096;52.548;13.406;2023-06-10T06:18:34;9.77;;;5.10;;
71821;SDS011;64096;52.548;13.406;2023-06-10T06:21:00;8.93;;;4.80;;
71821;SDS011;64096;52.548;13.406;2023-06-10T06:23:26;7.47;;;4.75;;
71821;SDS011;64096;52.548;13.406;2023-06-10T06:25:52;8.63;;;5.25;;
71821;SDS011;64096;52.548;13.406;2023-06-10T06:28:18;9.20;;;4.80;;
71821;SDS011;64096;52.548;13.406;2023-06-10T06:30:46;9.18;;;5.20;;
71821;SDS011;64096;52.548;13.406;2023-06-10T06:33:12;7.78;;;4.50;;
71821;SDS011;64096;52.548;13.406;2023-06-10T06:35:38;7.35;;;4.57;;
71821;SDS011;64096;52.548;13.406;2023-06-10T06:38:05;8.65;;;5.15;;
71821;SDS011;64096;52.548;13.406;2023-06-10T06:40:31;7.38;;;4.95;;
71821;SDS011;64096;52.548;13.406;2023-06-10T06:42:57;8.27;;;4.97;;
71821;SDS011;64096;52.548;13.406;2023-06-10T06:45:23;6.68;;;4.88;;
71821;SDS011;64096;52.548;13.406;2023-06-10T06:47:49;9.63;;;5.00;;
71821;SDS011;64096;52.548;13.406;2023-06-10T06:50:16;7.65;;;4.65;;
71821;SDS011;64096;52.548;13.406;2023-06-10T06:52:42;7.57;;;4.88;;
71821;SDS011;64096;52.548;13.406;2023-06-10T06:55:08;6.75;;;4.78;;
71821;SDS011;64096;52.548;13.406;2023-06-10T06:57:34;6.47;;;4.53;;
71821;SDS011;64096;52.548;13.406;2023-06-10T07:00:01;6.60;;;4.00;;
71821;SDS011;64096;52.548;13.406;2023-06-10T07:02:27;8.43;;;5.22;;
71821;SDS011;64096;52.548;13.406;2023-06-10T07:04:53;8.48;;;4.50;;
71821;SDS011;64096;52.548;13.406;2023-06-10T07:07:21;7.20;;;4.50;;
71821;SDS011;64096;52.548;13.406;2023-06-10T07:09:47;8.85;;;5.28;;
71821;SDS011;64096;52.548;13.406;2023-06-10T07:12:13;7.88;;;4.75;;
71821;SDS011;64096;52.548;13.406;2023-06-10T07:14:39;7.28;;;4.68;;
71821;SDS011;64096;52.548;13.406;2023-06-10T07:17:05;7.65;;;5.18;;
71821;SDS011;64096;52.548;13.406;2023-06-10T07:19:31;7.38;;;4.93;;
71821;SDS011;64096;52.548;13.406;2023-06-10T07:21:57;6.55;;;4.18;;
71821;SDS011;64096;52.548;13.406;2023-06-10T07:24:23;7.25;;;4.57;;
71821;SDS011;64096;52.548;13.406;2023-06-10T07:26:50;7.55;;;4.57;;
71821;SDS011;64096;52.548;13.406;2023-06-10T07:29:16;6.60;;;4.38;;
71821;SDS011;64096;52.548;13.406;2023-06-10T07:31:42;6.22;;;4.28;;
71821;SDS011;64096;52.548;13.406;2023-06-10T07:34:08;6.35;;;4.35;;
71821;SDS011;64096;52.548;13.406;2023-06-10T07:36:34;8.25;;;4.60;;
71821;SDS011;64096;52.548;13.406;2023-06-10T07:39:01;7.60;;;5.22;;
71821;SDS011;64096;52.548;13.406;2023-06-10T07:41:27;7.05;;;4.40;;
71821;SDS011;64096;52.548;13.406;2023-06-10T07:43:53;6.60;;;4.35;;
71821;SDS011;64096;52.548;13.406;2023-06-10T07:46:21;7.85;;;4.70;;
71821;SDS011;64096;52.548;13.406;2023-06-10T07:48:48;8.00;;;4.60;;
71821;SDS011;64096;52.548;13.406;2023-06-10T07:51:17;7.32;;;4.70;;
71821;SDS011;64096;52.548;13.406;2023-06-10T07:53:43;8.15;;;5.10;;
71821;SDS011;64096;52.548;13.406;2023-06-10T07:56:09;7.20;;;4.57;;
71821;SDS011;64096;52.548;13.406;2023-06-10T07:58:35;7.32;;;4.82;;
71821;SDS011;64096;52.548;13.406;2023-06-10T08:01:01;8.50;;;4.57;;
71821;SDS011;64096;52.548;13.406;2023-06-10T08:03:27;8.65;;;5.72;;
71821;SDS011;64096;52.548;13.406;2023-06-10T08:05:53;7.03;;;4.32;;
71821;SDS011;64096;52.548;13.406;2023-06-10T08:08:19;7.80;;;5.30;;
71821;SDS011;64096;52.548;13.406;2023-06-10T08:10:45;8.52;;;5.28;;
71821;SDS011;64096;52.548;13.406;2023-06-10T08:13:11;7.60;;;5.03;;
71821;SDS011;64096;52.548;13.406;2023-06-10T08:15:38;8.50;;;5.57;;
71821;SDS011;64096;52.548;13.406;2023-06-10T08:18:04;8.30;;;4.97;;
71821;SDS011;64096;52.548;13.406;2023-06-10T08:20:30;7.35;;;4.82;;
71821;SDS011;64096;52.548;13.406;2023-06-10T08:22:57;7.95;;;4.65;;
71821;SDS011;64096;52.548;13.406;2023-06-10T08:25:23;8.68;;;4.85;;
71821;SDS011;64096;52.548;13.406;2023-06-10T08:27:49;7.60;;;5.15;;
71821;SDS011;64096;52.548;13.406;2023-06-10T08:30:17;7.32;;;5.15;;
71821;SDS011;64096;52.548;13.406;2023-06-10T08:32:43;6.15;;;4.65;;
71821;SDS011;64096;52.548;13.406;2023-06-10T08:35:09;7.45;;;4.75;;
71821;SDS011;64096;52.548;13.406;2023-06-10T08:37:35;5.53;;;4.50;;
71821;SDS011;64096;52.548;13.406;2023-06-10T08:40:02;6.85;;;4.65;;
71821;SDS011;64096;52.548;13.406;2023-06-10T08:42:38;6.65;;;4.93;;
71821;SDS011;64096;52.548;13.406;2023-06-10T08:45:05;8.00;;;5.03;;
71821;SDS011;64096;52.548;13.406;2023-06-10T08:47:34;7.78;;;5.72;;
71821;SDS011;64096;52.548;13.406;2023-06-10T08:50:04;8.75;;;4.78;;
71821;SDS011;64096;52.548;13.406;2023-06-10T08:52:35;7.30;;;4.30;;
71821;SDS011;64096;52.548;13.406;2023-06-10T08:55:15;9.10;;;5.15;;
71821;SDS011;64096;52.548;13.406;2023-06-10T08:57:50;6.72;;;4.97;;
71821;SDS011;64096;52.548;13.406;2023-06-10T09:00:17;9.45;;;5.35;;
71821;SDS011;64096;52.548;13.406;2023-06-10T09:02:43;7.28;;;4.90;;
71821;SDS011;64096;52.548;13.406;2023-06-10T09:05:10;7.20;;;5.00;;
71821;SDS011;64096;52.548;13.406;2023-06-10T09:07:36;9.45;;;5.18;;
71821;SDS011;64096;52.548;13.406;2023-06-10T09:10:02;7.45;;;5.40;;
71821;SDS011;64096;52.548;13.406;2023-06-10T09:12:31;7.85;;;5.10;;
71821;SDS011;64096;52.548;13.406;2023-06-10T09:14:57;6.40;;;4.43;;
71821;SDS011;64096;52.548;13.406;2023-06-10T09:17:24;8.10;;;5.05;;
71821;SDS011;64096;52.548;13.406;2023-06-10T09:19:50;8.82;;;5.35;;
71821;SDS011;64096;52.548;13.406;2023-06-10T09:22:20;7.32;;;5.15;;
71821;SDS011;64096;52.548;13.406;2023-06-10T09:24:46;6.68;;;4.53;;
71821;SDS011;64096;52.548;13.406;2023-06-10T09:27:13;9.77;;;5.57;;
71821;SDS011;64096;52.548;13.406;2023-06-10T09:29:51;9.32;;;5.00;;
71821;SDS011;64096;52.548;13.406;2023-06-10T09:32:18;7.82;;;4.78;;
71821;SDS011;64096;52.548;13.406;2023-06-10T09:34:45;8.77;;;5.15;;
71821;SDS011;64096;52.548;13.406;2023-06-10T09:37:11;9.75;;;5.20;;
71821;SDS011;64096;52.548;13.406;2023-06-10T09:39:39;8.10;;;4.97;;
71821;SDS011;64096;52.548;13.406;2023-06-10T09:42:23;9.38;;;5.53;;
71821;SDS011;64096;52.548;13.406;2023-06-10T09:44:50;9.50;;;5.00;;
71821;SDS011;64096;52.548;13.406;2023-06-10T09:47:19;8.32;;;5.68;;
71821;SDS011;64096;52.548;13.406;2023-06-10T09:49:46;8.35;;;5.55;;
71821;SDS011;64096;52.548;13.406;2023-06-10T09:52:12;7.20;;;5.93;;
71821;SDS011;64096;52.548;13.406;2023-06-10T09:54:38;8.95;;;5.45;;
71821;SDS011;64096;52.548;13.406;2023-06-10T09:57:07;7.80;;;5.35;;
71821;SDS011;64096;52.548;13.406;2023-06-10T09:59:35;10.57;;;5.78;;
71821;SDS011;64096;52.548;13.406;2023-06-10T10:02:03;7.13;;;5.18;;
71821;SDS011;64096;52.548;13.406;2023-06-10T10:04:29;10.73;;;5.65;;
71821;SDS011;64096;52.548;13.406;2023-06-10T10:06:55;9.32;;;5.60;;
71821;SDS011;64096;52.548;13.406;2023-06-10T10:09:21;9.45;;;5.68;;
71821;SDS011;64096;52.548;13.406;2023-06-10T10:11:47;7.55;;;5.10;;
71821;SDS011;64096;52.548;13.406;2023-06-10T10:14:14;6.97;;;5.28;;
71821;SDS011;64096;52.548;13.406;2023-06-10T10:16:42;8.55;;;5.70;;
71821;SDS011;64096;52.548;13.406;2023-06-10T10:19:11;7.38;;;5.30;;
71821;SDS011;64096;52.548;13.406;2023-06-10T10:21:39;8.70;;;5.43;;
71821;SDS011;64096;52.548;13.406;2023-06-10T10:24:12;7.65;;;5.07;;
71821;SDS011;64096;52.548;13.406;2023-06-10T10:26:38;7.38;;;5.28;;
71821;SDS011;64096;52.548;13.406;2023-06-10T10:29:39;8.00;;;5.15;;
71821;SDS011;64096;52.548;13.406;2023-06-10T10:31:57;6.15;;;4.70;;
71821;SDS011;64096;52.548;13.406;2023-06-10T10:34:47;5.65;;;4.40;;
71821;SDS011;64096;52.548;13.406;2023-06-10T10:37:17;6.30;;;3.85;;
71821;SDS011;64096;52.548;13.406;2023-06-10T10:39:44;5.18;;;3.90;;
71821;SDS011;64096;52.548;13.406;2023-06-10T10:42:10;5.15;;;4.15;;
71821;SDS011;64096;52.548;13.406;2023-06-10T10:44:39;6.35;;;4.30;;
71821;SDS011;64096;52.548;13.406;2023-06-10T10:47:07;5.45;;;3.90;;
71821;SDS011;64096;52.548;13.406;2023-06-10T10:49:35;6.30;;;4.13;;
71821;SDS011;64096;52.548;13.406;2023-06-10T10:52:01;4.93;;;3.75;;
71821;SDS011;64096;52.548;13.406;2023-06-10T10:54:34;8.77;;;3.80;;
71821;SDS011;64096;52.548;13.406;2023-06-10T11:02:10;3.80;;;2.83;;
71821;SDS011;64096;52.548;13.406;2023-06-10T11:04:36;5.13;;;3.28;;
71821;SDS011;64096;52.548;13.406;2023-06-10T11:07:05;4.15;;;3.17;;
71821;SDS011;64096;52.548;13.406;2023-06-10T11:09:32;4.70;;;3.50;;
71821;SDS011;64096;52.548;13.406;2023-06-10T11:11:58;4.20;;;3.10;;
71821;SDS011;64096;52.548;13.406;2023-06-10T11:14:28;5.22;;;3.90;;
71821;SDS011;64096;52.548;13.406;2023-06-10T11:16:57;5.75;;;4.32;;
71821;SDS011;64096;52.548;13.406;2023-06-10T11:19:33;5.20;;;3.90;;
71821;SDS011;64096;52.548;13.406;2023-06-10T11:22:00;6.10;;;3.53;;
71821;SDS011;64096;52.548;13.406;2023-06-10T11:24:28;5.47;;;3.72;;
71821;SDS011;64096;52.548;13.406;2023-06-10T11:26:54;5.18;;;3.28;;
71821;SDS011;64096;52.548;13.406;2023-06-10T11:29:20;6.20;;;4.13;;
71821;SDS011;64096;52.548;13.406;2023-06-10T11:31:50;5.07;;;3.67;;
71821;SDS011;64096;52.548;13.406;2023-06-10T11:34:22;5.15;;;3.83;;
71821;SDS011;64096;52.548;13.406;2023-06-10T11:36:50;4.93;;;3.85;;
71821;SDS011;64096;52.548;13.406;2023-06-10T11:39:16;4.85;;;3.95;;
71821;SDS011;64096;52.548;13.406;2023-06-10T11:41:43;5.53;;;4.28;;
71821;SDS011;64096;52.548;13.406;2023-06-10T11:46:35;5.95;;;5.03;;
71821;SDS011;64096;52.548;13.406;2023-06-10T11:49:02;6.93;;;4.90;;
71821;SDS011;64096;52.548;13.406;2023-06-10T11:51:29;7.30;;;5.82;;
71821;SDS011;64096;52.548;13.406;2023-06-10T11:53:55;9.20;;;5.55;;
71821;SDS011;64096;52.548;13.406;2023-06-10T11:56:22;5.90;;;4.47;;
71821;SDS011;64096;52.548;13.406;2023-06-10T11:58:52;6.45;;;5.00;;
71821;SDS011;64096;52.548;13.406;2023-06-10T12:01:19;7.18;;;5.53;;
71821;SDS011;64096;52.548;13.406;2023-06-10T12:03:46;6.45;;;4.95;;
71821;SDS011;64096;52.548;13.406;2023-06-10T12:06:13;5.70;;;4.63;;
71821;SDS011;64096;52.548;13.406;2023-06-10T12:08:42;6.35;;;4.97;;
71821;SDS011;64096;52.548;13.406;2023-06-10T12:11:09;6.45;;;4.70;;
71821;SDS011;64096;52.548;13.406;2023-06-10T12:13:35;6.50;;;5.10;;
71821;SDS011;64096;52.548;13.406;2023-06-10T12:16:09;5.88;;;4.78;;
71821;SDS011;64096;52.548;13.406;2023-06-10T12:18:35;6.10;;;4.63;;
71821;SDS011;64096;52.548;13.406;2023-06-10T12:21:01;5.40;;;4.15;;
71821;SDS011;64096;52.548;13.406;2023-06-10T12:23:28;6.82;;;4.05;;
71821;SDS011;64096;52.548;13.406;2023-06-10T12:25:55;4.45;;;3.55;;
71821;SDS011;64096;52.548;13.406;2023-06-10T12:28:25;6.50;;;4.07;;
71821;SDS011;64096;52.548;13.406;2023-06-10T12:30:51;6.68;;;4.20;;
71821;SDS011;64096;52.548;13.406;2023-06-10T12:33:18;4.55;;;3.70;;
71821;SDS011;64096;52.548;13.406;2023-06-10T12:35:48;7.10;;;4.63;;
71821;SDS011;64096;52.548;13.406;2023-06-10T12:38:14;5.38;;;4.30;;
71821;SDS011;64096;52.548;13.406;2023-06-10T12:40:40;5.30;;;4.28;;
71821;SDS011;64096;52.548;13.406;2023-06-10T12:43:07;5.38;;;4.50;;
71821;SDS011;64096;52.548;13.406;2023-06-10T12:45:34;5.53;;;4.90;;
71821;SDS011;64096;52.548;13.406;2023-06-10T12:48:10;7.03;;;5.72;;
71821;SDS011;64096;52.548;13.406;2023-06-10T12:50:37;7.40;;;6.00;;
71821;SDS011;64096;52.548;13.406;2023-06-10T12:53:04;6.75;;;5.63;;
71821;SDS011;64096;52.548;13.406;2023-06-10T12:55:30;8.10;;;6.53;;
71821;SDS011;64096;52.548;13.406;2023-06-10T12:57:57;8.57;;;7.18;;
71821;SDS011;64096;52.548;13.406;2023-06-10T13:00:23;8.05;;;6.40;;
71821;SDS011;64096;52.548;13.406;2023-06-10T13:03:09;7.43;;;6.35;;
71821;SDS011;64096;52.548;13.406;2023-06-10T13:05:36;9.43;;;6.38;;
71821;SDS011;64096;52.548;13.406;2023-06-10T13:08:04;7.13;;;6.43;;
71821;SDS011;64096;52.548;13.406;2023-06-10T13:10:30;7.00;;;6.30;;
71821;SDS011;64096;52.548;13.406;2023-06-10T13:12:56;7.63;;;6.80;;
71821;SDS011;64096;52.548;13.406;2023-06-10T13:15:22;6.97;;;6.28;;
71821;SDS011;64096;52.548;13.406;2023-06-10T13:17:51;8.57;;;6.32;;
71821;SDS011;64096;52.548;13.406;2023-06-10T13:20:18;9.45;;;6.80;;
71821;SDS011;64096;52.548;13.406;2023-06-10T13:22:44;8.02;;;6.30;;
71821;SDS011;64096;52.548;13.406;2023-06-10T13:25:10;8.73;;;6.63;;
71821;SDS011;64096;52.548;13.406;2023-06-10T13:27:36;8.40;;;6.05;;
71821;SDS011;64096;52.548;13.406;2023-06-10T13:30:07;7.65;;;6.50;;
71821;SDS011;64096;52.548;13.406;2023-06-10T13:32:33;8.15;;;6.40;;
71821;SDS011;64096;52.548;13.406;2023-06-10T13:34:59;7.50;;;6.43;;
71821;SDS011;64096;52.548;13.406;2023-06-10T13:37:26;7.40;;;5.85;;
71821;SDS011;64096;52.548;13.406;2023-06-10T13:39:52;6.60;;;5.65;;
71821;SDS011;64096;52.548;13.406;2023-06-10T13:42:18;10.48;;;6.75;;
71821;SDS011;64096;52.548;13.406;2023-06-10T13:44:45;7.07;;;5.60;;
71821;SDS011;64096;52.548;13.406;2023-06-10T13:47:12;6.90;;;5.60;;
71821;SDS011;64096;52.548;13.406;2023-06-10T13:49:38;7.47;;;5.88;;
71821;SDS011;64096;52.548;13.406;2023-06-10T13:52:05;7.10;;;6.10;;
71821;SDS011;64096;52.548;13.406;2023-06-10T13:54:31;6.53;;;5.55;;
71821;SDS011;64096;52.548;13.406;2023-06-10T13:56:58;6.20;;;5.47;;
71821;SDS011;64096;52.548;13.406;2023-06-10T13:59:25;6.00;;;5.40;;
